Kafr el-Dauwar, Egypt
Current Conditions -  °F | °C
As of 9:00 PM on Friday 28 Nov 2014 (Local Time) from HEAX Reporting Station
Scattered Clouds Scattered Clouds  
Wind Chill: 16°   Ceiling: Unl
Heat Index: 16°   Visibility: 6mi
Dew Point: 12°   Wind: 2mph
Humidity: 77%   Direction: 170°S
Pressure: 30.24"   Gusts: NA
Location:  31.13°N, 30.12°E
Report Text: HEAX 281900Z 17002KT 9999 SCT020 16/12 Q1024 NOSIG
Loading
Personal Weather Stations






























Interactive Weather Map New forecast layout! Learn more

10-Day Weather Forecast

Advertisements
Track Severe Weather on mobile